createdAt,value
2016-04-26T00:00:10.998Z,25.46
2016-04-26T00:01:12.125Z,25.4
2016-04-26T00:02:11.034Z,25.45
2016-04-26T00:03:11.005Z,25.43
2016-04-26T00:04:11.008Z,25.4
2016-04-26T00:05:11.042Z,25.43
2016-04-26T00:06:11.018Z,25.47
2016-04-26T00:07:11.020Z,25.4
2016-04-26T00:08:11.038Z,25.47
2016-04-26T00:09:11.040Z,25.3
2016-04-26T00:10:10.903Z,25.43
2016-04-26T00:11:11.046Z,25.47
2016-04-26T00:12:11.064Z,25.39
2016-04-26T00:13:11.067Z,25.45
2016-04-26T00:14:11.070Z,25.39
2016-04-26T00:15:11.073Z,25.35
2016-04-26T00:16:11.278Z,25.36
2016-04-26T00:17:11.094Z,25.4
2016-04-26T00:18:11.097Z,25.45
2016-04-26T00:19:11.100Z,25.45
2016-04-26T00:20:11.117Z,25.39
2016-04-26T00:21:11.105Z,25.45
2016-04-26T00:22:11.107Z,25.33
2016-04-26T00:23:11.125Z,25.36
2016-04-26T00:24:11.128Z,25.43
2016-04-26T00:25:11.131Z,25.46
2016-04-26T00:26:11.149Z,25.46
2016-04-26T00:27:11.136Z,25.45
2016-04-26T00:28:11.139Z,25.45
2016-04-26T00:29:11.157Z,25.4
2016-04-26T00:30:11.019Z,25.47
2016-04-26T00:31:11.178Z,25.35
2016-04-26T00:32:12.103Z,25.46
2016-04-26T00:33:11.199Z,25.4
2016-04-26T00:34:11.186Z,25.4
2016-04-26T00:35:11.188Z,25.47
2016-04-26T00:36:11.191Z,25.4
2016-04-26T00:37:11.210Z,25.42
2016-04-26T00:38:11.213Z,25.42
2016-04-26T00:39:11.215Z,25.39
2016-04-26T00:40:11.218Z,25.42
2016-04-26T00:41:11.221Z,25.45
2016-04-26T00:42:11.239Z,25.52
2016-04-26T00:43:11.242Z,25.45
2016-04-26T00:44:11.259Z,25.47
2016-04-26T00:45:11.247Z,25.5
2016-04-26T00:46:12.078Z,25.42
2016-04-26T00:47:12.267Z,25.43
2016-04-26T00:48:11.271Z,25.46
2016-04-26T00:49:11.273Z,25.47
2016-04-26T00:50:11.275Z,25.46
2016-04-26T00:51:11.279Z,25.46
2016-04-26T00:52:11.297Z,25.47
2016-04-26T00:53:11.300Z,25.45
2016-04-26T00:54:11.303Z,25.43
2016-04-26T00:55:11.305Z,25.46
2016-04-26T00:56:11.308Z,25.43
2016-04-26T00:57:11.326Z,25.57
2016-04-26T00:58:11.329Z,25.51
2016-04-26T00:59:11.332Z,25.43
2016-04-26T01:00:11.335Z,25.43
2016-04-26T01:01:11.774Z,25.42
2016-04-26T01:02:11.121Z,25.43
2016-04-26T01:03:11.342Z,25.54
2016-04-26T01:04:11.392Z,25.51
2016-04-26T01:05:11.380Z,25.47
2016-04-26T01:06:11.366Z,25.54
2016-04-26T01:07:11.385Z,25.5
2016-04-26T01:08:11.387Z,25.51
2016-04-26T01:09:11.390Z,25.42
2016-04-26T01:10:11.392Z,25.5
2016-04-26T01:11:11.411Z,25.54
2016-04-26T01:12:11.413Z,25.46
2016-04-26T01:13:11.431Z,25.5
2016-04-26T01:14:11.419Z,25.54
2016-04-26T01:15:11.437Z,25.46
2016-04-26T01:16:12.065Z,25.45
2016-04-26T01:17:11.881Z,25.46
2016-04-26T01:18:11.445Z,25.51
2016-04-26T01:19:11.448Z,25.5
2016-04-26T01:20:11.451Z,25.58
2016-04-26T01:21:11.453Z,25.46
2016-04-26T01:22:11.455Z,25.51
2016-04-26T01:23:11.475Z,25.46
2016-04-26T01:24:11.477Z,25.52
2016-04-26T01:25:11.480Z,25.47
2016-04-26T01:26:11.498Z,25.46
2016-04-26T01:27:11.500Z,25.5
2016-04-26T01:28:11.519Z,25.52
2016-04-26T01:29:11.506Z,25.55
2016-04-26T01:30:11.509Z,25.46
2016-04-26T01:31:11.761Z,25.43
2016-04-26T01:32:11.889Z,25.51
2016-04-26T01:33:11.532Z,25.54
2016-04-26T01:34:11.551Z,25.5
2016-04-26T01:35:11.569Z,25.51
2016-04-26T01:36:11.557Z,25.51
2016-04-26T01:37:11.559Z,25.52
2016-04-26T01:38:11.562Z,25.52
2016-04-26T01:39:11.565Z,25.45
2016-04-26T01:40:11.568Z,25.46
2016-04-26T01:41:11.570Z,25.55
2016-04-26T01:42:11.587Z,25.42
2016-04-26T01:43:11.591Z,25.45
2016-04-26T01:44:11.609Z,25.46
2016-04-26T01:45:11.596Z,25.45
2016-04-26T01:46:11.614Z,25.46
2016-04-26T01:47:12.165Z,25.51
2016-04-26T01:48:11.620Z,25.54
2016-04-26T01:49:11.637Z,25.51
2016-04-26T01:50:11.640Z,25.42
2016-04-26T01:51:11.643Z,25.57
2016-04-26T01:52:11.645Z,25.45
2016-04-26T01:53:11.665Z,25.5
2016-04-26T01:54:11.651Z,25.52
2016-04-26T01:55:11.653Z,25.52
2016-04-26T01:56:11.673Z,25.52
2016-04-26T01:57:11.675Z,25.55
2016-04-26T01:58:11.677Z,25.5
2016-04-26T01:59:11.681Z,25.5
2016-04-26T02:00:11.699Z,25.46
2016-04-26T02:01:11.702Z,25.54
2016-04-26T02:02:11.595Z,25.47
2016-04-26T02:03:11.707Z,25.54
2016-04-26T02:04:11.710Z,25.51
2016-04-26T02:05:11.728Z,25.51
2016-04-26T02:06:11.715Z,25.43
2016-04-26T02:07:11.734Z,25.45
2016-04-26T02:08:11.736Z,25.52
2016-04-26T02:09:11.754Z,25.45
2016-04-26T02:10:11.742Z,25.52
2016-04-26T02:11:11.760Z,25.57
2016-04-26T02:12:11.762Z,25.52
2016-04-26T02:13:11.765Z,25.47
2016-04-26T02:14:11.784Z,25.51
2016-04-26T02:15:11.786Z,25.54
2016-04-26T02:16:11.789Z,25.45
2016-04-26T02:17:11.792Z,25.58
2016-04-26T02:18:11.810Z,25.55
2016-04-26T02:19:11.812Z,25.5
2016-04-26T02:20:11.815Z,25.6
2016-04-26T02:21:11.818Z,25.58
2016-04-26T02:22:11.695Z,25.6
2016-04-26T02:23:11.830Z,25.51
2016-04-26T02:24:11.833Z,25.58
2016-04-26T02:25:11.852Z,25.58
2016-04-26T02:26:11.838Z,25.57
2016-04-26T02:27:11.857Z,25.58
2016-04-26T02:28:11.860Z,25.47
2016-04-26T02:29:11.862Z,25.47
2016-04-26T02:30:11.865Z,25.54
2016-04-26T02:31:11.867Z,25.5
2016-04-26T02:32:12.933Z,25.47
2016-04-26T02:33:11.888Z,25.57
2016-04-26T02:34:11.890Z,25.54
2016-04-26T02:35:11.909Z,25.5
2016-04-26T02:36:11.896Z,25.46
2016-04-26T02:37:11.915Z,25.55
2016-04-26T02:38:11.917Z,25.5
2016-04-26T02:39:11.921Z,25.47
2016-04-26T02:40:11.923Z,25.5
2016-04-26T02:41:11.942Z,25.52
2016-04-26T02:42:11.944Z,25.52
2016-04-26T02:43:11.946Z,25.52
2016-04-26T02:44:11.965Z,25.51
2016-04-26T02:45:12.015Z,25.46
2016-04-26T02:46:11.970Z,25.45
2016-04-26T02:47:12.660Z,25.51
2016-04-26T02:48:11.992Z,25.54
2016-04-26T02:49:11.994Z,25.54
2016-04-26T02:50:11.996Z,25.46
2016-04-26T02:51:11.999Z,25.5
2016-04-26T02:52:12.003Z,25.51
2016-04-26T02:53:12.052Z,25.43
2016-04-26T02:54:12.022Z,25.45
2016-04-26T02:55:12.011Z,25.58
2016-04-26T02:56:12.043Z,25.46
2016-04-26T02:57:12.078Z,25.47
2016-04-26T02:58:12.033Z,25.45
2016-04-26T02:59:12.036Z,25.51
2016-04-26T03:00:12.055Z,25.46
2016-04-26T03:01:12.058Z,25.46
2016-04-26T03:02:12.294Z,25.45
2016-04-26T03:03:12.078Z,25.43
2016-04-26T03:04:11.910Z,25.51
2016-04-26T03:05:12.084Z,25.46
2016-04-26T03:06:12.087Z,25.5
2016-04-26T03:07:12.089Z,25.46
2016-04-26T03:08:12.092Z,25.51
2016-04-26T03:09:12.110Z,25.55
2016-04-26T03:10:11.972Z,25.52
2016-04-26T03:11:12.115Z,25.47
2016-04-26T03:12:12.118Z,25.55
2016-04-26T03:13:12.121Z,25.57
2016-04-26T03:14:12.123Z,25.52
2016-04-26T03:15:12.142Z,25.61
2016-04-26T03:16:12.144Z,25.47
2016-04-26T03:17:12.024Z,25.5
2016-04-26T03:18:12.151Z,25.51
2016-04-26T03:19:12.154Z,25.58
2016-04-26T03:20:12.156Z,25.5
2016-04-26T03:21:12.175Z,25.57
2016-04-26T03:22:12.178Z,25.6
2016-04-26T03:23:12.180Z,25.52
2016-04-26T03:24:12.198Z,25.5
2016-04-26T03:25:12.201Z,25.47
2016-04-26T03:26:12.204Z,25.55
2016-04-26T03:27:12.206Z,25.52
2016-04-26T03:28:12.209Z,25.5
2016-04-26T03:29:12.212Z,25.61
2016-04-26T03:30:12.230Z,25.54
2016-04-26T03:31:12.233Z,25.51
2016-04-26T03:32:11.955Z,25.5
2016-04-26T03:33:12.238Z,25.54
2016-04-26T03:34:12.256Z,25.52
2016-04-26T03:35:12.259Z,25.52
2016-04-26T03:36:12.261Z,25.55
2016-04-26T03:37:12.264Z,25.62
2016-04-26T03:38:12.283Z,25.57
2016-04-26T03:39:12.286Z,25.57
2016-04-26T03:40:12.288Z,25.58
2016-04-26T03:41:12.291Z,25.46
2016-04-26T03:42:12.294Z,25.57
2016-04-26T03:43:12.296Z,25.57
2016-04-26T03:44:12.299Z,25.62
2016-04-26T03:45:12.317Z,25.57
2016-04-26T03:46:12.321Z,25.58
2016-04-26T03:47:12.010Z,25.55
2016-04-26T03:48:12.325Z,25.54
2016-04-26T03:49:12.344Z,25.52
2016-04-26T03:50:12.346Z,25.5
2016-04-26T03:51:12.349Z,25.52
2016-04-26T03:52:12.352Z,25.5
2016-04-26T03:53:12.386Z,25.52
2016-04-26T03:54:12.357Z,25.45
2016-04-26T03:55:12.375Z,25.46
2016-04-26T03:56:12.378Z,25.54
2016-04-26T03:57:12.381Z,25.47
2016-04-26T03:58:12.383Z,25.54
2016-04-26T03:59:12.403Z,25.57
2016-04-26T04:00:12.405Z,25.55
2016-04-26T04:01:12.407Z,25.52
2016-04-26T04:02:12.692Z,25.52
2016-04-26T04:03:12.428Z,25.5
2016-04-26T04:04:12.415Z,25.6
2016-04-26T04:05:12.434Z,25.51
2016-04-26T04:06:12.436Z,25.58
2016-04-26T04:07:12.439Z,25.62
2016-04-26T04:08:12.442Z,25.55
2016-04-26T04:09:12.444Z,25.51
2016-04-26T04:10:12.457Z,25.46
2016-04-26T04:11:12.476Z,25.52
2016-04-26T04:12:12.462Z,25.54
2016-04-26T04:13:12.481Z,25.5
2016-04-26T04:14:12.484Z,25.52
2016-04-26T04:15:12.486Z,25.5
2016-04-26T04:16:12.489Z,25.54
2016-04-26T04:17:13.242Z,25.55
2016-04-26T04:18:12.509Z,25.55
2016-04-26T04:19:12.512Z,25.61
2016-04-26T04:20:12.515Z,25.54
2016-04-26T04:21:12.517Z,25.58
2016-04-26T04:22:12.520Z,25.64
2016-04-26T04:23:12.523Z,25.58
2016-04-26T04:24:12.557Z,25.47
2016-04-26T04:25:12.544Z,25.51
2016-04-26T04:26:12.547Z,25.5
2016-04-26T04:27:12.565Z,25.52
2016-04-26T04:28:12.567Z,25.54
2016-04-26T04:29:12.570Z,25.52
2016-04-26T04:30:12.572Z,25.47
2016-04-26T04:31:12.576Z,25.52
2016-04-26T04:32:12.954Z,25.5
2016-04-26T04:33:12.441Z,25.47
2016-04-26T04:34:12.600Z,25.55
2016-04-26T04:35:12.446Z,25.55
2016-04-26T04:36:12.605Z,25.55
2016-04-26T04:37:12.607Z,25.55
2016-04-26T04:38:12.626Z,25.5
2016-04-26T04:39:12.629Z,25.5
2016-04-26T04:40:12.632Z,25.47
2016-04-26T04:41:12.665Z,25.52
2016-04-26T04:42:12.637Z,25.42
2016-04-26T04:43:12.640Z,25.51
2016-04-26T04:44:12.657Z,25.47
2016-04-26T04:45:12.660Z,25.46
2016-04-26T04:46:12.679Z,25.45
2016-04-26T04:47:12.525Z,25.5
2016-04-26T04:48:12.668Z,25.52
2016-04-26T04:49:12.531Z,25.52
2016-04-26T04:50:12.705Z,25.5
2016-04-26T04:51:12.708Z,25.52
2016-04-26T04:52:12.695Z,25.5
2016-04-26T04:53:12.713Z,25.45
2016-04-26T04:54:12.716Z,25.52
2016-04-26T04:55:12.719Z,25.46
2016-04-26T04:56:12.721Z,25.46
2016-04-26T04:57:12.724Z,25.4
2016-04-26T04:58:12.742Z,25.39
2016-04-26T04:59:12.745Z,25.45
2016-04-26T05:00:12.747Z,25.38
2016-04-26T05:01:12.750Z,25.38
2016-04-26T05:02:13.972Z,25.39
2016-04-26T05:03:12.755Z,25.4
2016-04-26T05:04:12.774Z,25.39
2016-04-26T05:05:12.792Z,25.45
2016-04-26T05:06:12.779Z,25.36
2016-04-26T05:07:12.798Z,25.39
2016-04-26T05:08:12.784Z,25.43
2016-04-26T05:09:12.803Z,25.45
2016-04-26T05:10:12.806Z,25.52
2016-04-26T05:11:12.824Z,25.51
2016-04-26T05:12:12.827Z,25.46
2016-04-26T05:13:12.829Z,25.4
2016-04-26T05:14:12.832Z,25.43
2016-04-26T05:15:12.835Z,25.51
2016-04-26T05:16:12.853Z,25.45
2016-04-26T05:17:12.871Z,25.46
2016-04-26T05:18:12.858Z,25.51
2016-04-26T05:19:12.862Z,25.57
2016-04-26T05:20:12.865Z,25.43
2016-04-26T05:21:12.867Z,25.47
2016-04-26T05:22:12.885Z,25.45
2016-04-26T05:23:12.887Z,25.42
2016-04-26T05:24:12.906Z,25.45
2016-04-26T05:25:12.893Z,25.51
2016-04-26T05:26:12.927Z,25.57
2016-04-26T05:27:12.914Z,25.62
2016-04-26T05:28:12.917Z,25.61
2016-04-26T05:29:12.920Z,25.65
2016-04-26T05:30:12.938Z,25.64
2016-04-26T05:31:13.331Z,25.62
2016-04-26T05:32:12.647Z,25.76
2016-04-26T05:33:12.789Z,25.65
2016-04-26T05:34:12.964Z,25.61
2016-04-26T05:35:12.983Z,25.67
2016-04-26T05:36:12.985Z,25.67
2016-04-26T05:37:12.988Z,25.7
2016-04-26T05:38:12.990Z,25.67
2016-04-26T05:39:12.993Z,25.51
2016-04-26T05:40:12.996Z,25.57
2016-04-26T05:41:13.013Z,25.57
2016-04-26T05:42:13.032Z,25.58
2016-04-26T05:43:13.035Z,25.72
2016-04-26T05:44:13.038Z,25.65
2016-04-26T05:45:13.040Z,25.75
2016-04-26T05:46:13.043Z,25.7
2016-04-26T05:47:13.092Z,25.72
2016-04-26T05:48:12.986Z,25.69
2016-04-26T05:49:13.192Z,25.72
2016-04-26T05:50:13.398Z,25.69
2016-04-26T05:51:13.104Z,25.58
2016-04-26T05:52:13.090Z,25.61
2016-04-26T05:53:13.109Z,25.67
2016-04-26T05:54:13.112Z,25.67
2016-04-26T05:55:12.864Z,25.62
2016-04-26T05:56:13.133Z,25.55
2016-04-26T05:57:13.139Z,25.54
2016-04-26T05:58:13.178Z,25.54
2016-04-26T05:59:13.165Z,25.52
2016-04-26T06:00:13.152Z,25.58
2016-04-26T06:01:15.079Z,25.51
2016-04-26T06:02:15.417Z,25.43
2016-04-26T06:03:13.200Z,25.36
2016-04-26T06:04:13.188Z,25.33
2016-04-26T06:05:13.207Z,25.35
2016-04-26T06:06:13.194Z,25.46
2016-04-26T06:07:13.212Z,25.54
2016-04-26T06:08:13.214Z,25.54
2016-04-26T06:09:13.217Z,25.57
2016-04-26T06:10:13.235Z,25.6
2016-04-26T06:11:13.238Z,25.69
2016-04-26T06:12:13.241Z,25.76
2016-04-26T06:13:13.399Z,25.72
2016-04-26T06:14:13.246Z,25.72
2016-04-26T06:15:13.265Z,25.73
2016-04-26T06:16:13.268Z,25.72
2016-04-26T06:17:13.130Z,25.67
2016-04-26T06:18:13.554Z,25.77
2016-04-26T06:19:13.291Z,25.75
2016-04-26T06:20:13.356Z,25.72
2016-04-26T06:21:13.296Z,25.75
2016-04-26T06:22:13.318Z,25.85
2016-04-26T06:23:13.321Z,25.73
2016-04-26T06:24:13.339Z,25.73
2016-04-26T06:25:13.341Z,25.69
2016-04-26T06:26:13.360Z,25.65
2016-04-26T06:27:13.346Z,25.72
2016-04-26T06:28:13.349Z,25.58
2016-04-26T06:29:13.368Z,25.55
2016-04-26T06:30:13.371Z,25.52
2016-04-26T06:31:13.374Z,25.47
2016-04-26T06:32:13.548Z,25.43
2016-04-26T06:33:13.270Z,25.36
2016-04-26T06:34:13.397Z,25.43
2016-04-26T06:35:13.400Z,25.43
2016-04-26T06:36:13.434Z,25.43
2016-04-26T06:37:13.420Z,25.32
2016-04-26T06:38:13.470Z,25.33
2016-04-26T06:39:13.441Z,25.27
2016-04-26T06:40:13.445Z,25.21
2016-04-26T06:41:13.447Z,25.18
2016-04-26T06:42:13.449Z,25.36
2016-04-26T06:43:13.469Z,25.21
2016-04-26T06:44:13.486Z,25.25
2016-04-26T06:45:13.474Z,25.24
2016-04-26T06:46:13.477Z,25.36
2016-04-26T06:47:13.854Z,25.38
2016-04-26T06:48:13.607Z,25.39
2016-04-26T06:49:13.499Z,25.33
2016-04-26T06:50:13.518Z,25.36
2016-04-26T06:51:13.521Z,25.28
2016-04-26T06:52:13.523Z,25.17
2016-04-26T06:53:13.526Z,24.99
2016-04-26T06:54:13.529Z,24.95
2016-04-26T06:55:13.626Z,24.83
2016-04-26T06:56:13.581Z,24.77
2016-04-26T06:57:13.568Z,24.65
2016-04-26T06:58:13.570Z,24.71
2016-04-26T06:59:13.573Z,24.65
2016-04-26T07:00:13.576Z,24.65
2016-04-26T07:01:13.578Z,24.53
2016-04-26T07:02:13.534Z,24.69
2016-04-26T07:03:13.350Z,24.77
2016-04-26T07:04:13.587Z,24.68
2016-04-26T07:05:13.606Z,24.67
2016-04-26T07:06:13.609Z,24.52
2016-04-26T07:07:13.611Z,24.62
2016-04-26T07:08:13.629Z,24.62
2016-04-26T07:09:13.632Z,24.65
2016-04-26T07:10:13.650Z,24.68
2016-04-26T07:11:13.637Z,24.58
2016-04-26T07:12:13.639Z,24.52
2016-04-26T07:13:13.642Z,24.5
2016-04-26T07:14:13.661Z,24.62
2016-04-26T07:15:13.664Z,24.73
2016-04-26T07:16:13.666Z,24.76
2016-04-26T07:17:13.575Z,24.71
2016-04-26T07:18:13.516Z,24.58
2016-04-26T07:19:13.691Z,24.61
2016-04-26T07:20:13.677Z,24.62
2016-04-26T07:21:13.696Z,24.52
2016-04-26T07:22:13.557Z,24.81
2016-04-26T07:23:13.705Z,24.47
2016-04-26T07:24:13.707Z,24.42
2016-04-26T07:25:13.710Z,24.57
2016-04-26T07:26:13.729Z,24.57
2016-04-26T07:27:13.716Z,24.68
2016-04-26T07:28:13.719Z,24.81
2016-04-26T07:29:13.721Z,24.4
2016-04-26T07:30:13.724Z,24.25
2016-04-26T07:31:13.726Z,24.47
2016-04-26T07:32:13.729Z,24.78
2016-04-26T07:33:13.451Z,24.87
2016-04-26T07:34:13.734Z,24.49
2016-04-26T07:35:13.738Z,24.71
2016-04-26T07:36:13.724Z,24.22
2016-04-26T07:37:13.727Z,24.77
2016-04-26T07:38:13.731Z,24.87
2016-04-26T07:39:13.733Z,24.73
2016-04-26T07:40:13.720Z,24.71
2016-04-26T07:41:13.722Z,24.61
2016-04-26T07:42:13.725Z,25.06
2016-04-26T07:43:13.728Z,25.33
2016-04-26T07:44:13.730Z,25.83
2016-04-26T07:45:14.311Z,25.43
2016-04-26T07:46:14.532Z,25.06
2016-04-26T07:47:13.724Z,24.93
2016-04-26T07:48:14.288Z,25.24
2016-04-26T07:49:13.729Z,25.62
2016-04-26T07:50:13.732Z,25.13
2016-04-26T07:51:13.734Z,25.02
2016-04-26T07:52:13.737Z,25.36
2016-04-26T07:53:13.740Z,25.62
2016-04-26T07:54:13.726Z,25.24
2016-04-26T07:55:13.745Z,25.08
2016-04-26T07:56:13.747Z,25.02
2016-04-26T07:57:13.751Z,25.38
2016-04-26T07:58:13.738Z,25.33
2016-04-26T07:59:13.740Z,24.81
2016-04-26T08:00:13.743Z,25.1
2016-04-26T08:01:13.761Z,25.45
2016-04-26T08:02:13.747Z,25.8
2016-04-26T08:03:13.579Z,26.05
2016-04-26T08:04:13.737Z,26.18
2016-04-26T08:05:13.740Z,26.3
2016-04-26T08:06:13.742Z,26.52
2016-04-26T08:07:13.745Z,26.55
2016-04-26T08:08:13.748Z,26.55
2016-04-26T08:09:13.751Z,26.54
2016-04-26T08:10:13.786Z,26.54
2016-04-26T08:11:13.772Z,26.65
2016-04-26T08:12:13.775Z,26.66
2016-04-26T08:13:13.778Z,26.7
2016-04-26T08:14:13.780Z,26.7
2016-04-26T08:15:13.799Z,26.66
2016-04-26T08:16:13.801Z,26.73
2016-04-26T08:17:13.804Z,26.84
2016-04-26T08:18:14.369Z,26.84
2016-04-26T08:19:13.810Z,26.84
2016-04-26T08:20:13.813Z,26.92
2016-04-26T08:21:13.830Z,26.84
2016-04-26T08:22:13.833Z,26.92
2016-04-26T08:23:13.836Z,27.03
2016-04-26T08:24:13.854Z,27.03
2016-04-26T08:25:13.857Z,26.97
2016-04-26T08:26:13.859Z,26.92
2016-04-26T08:27:13.862Z,26.91
2016-04-26T08:28:13.865Z,27
2016-04-26T08:29:13.874Z,27.02
2016-04-26T08:30:13.895Z,27.03
2016-04-26T08:31:13.939Z,27.03
2016-04-26T08:32:13.984Z,26.99
2016-04-26T08:33:14.653Z,27.06
2016-04-26T08:34:14.073Z,27
2016-04-26T08:35:13.991Z,27.02
2016-04-26T08:36:14.149Z,27.02
2016-04-26T08:37:14.167Z,26.99
2016-04-26T08:38:14.029Z,27.03
2016-04-26T08:39:14.219Z,27.13
2016-04-26T08:40:14.235Z,27.07
2016-04-26T08:41:14.244Z,27.1
2016-04-26T08:42:14.267Z,27.06
2016-04-26T08:43:14.274Z,27.1
2016-04-26T08:44:14.283Z,27.07
2016-04-26T08:45:14.354Z,27.1
2016-04-26T08:46:14.311Z,27.04
2016-04-26T08:47:14.315Z,27.07
2016-04-26T08:48:15.820Z,27.12
2016-04-26T08:49:14.340Z,27.1
2016-04-26T08:50:14.345Z,27.29
2016-04-26T08:51:14.348Z,27.14
2016-04-26T08:52:14.367Z,27.13
2016-04-26T08:53:14.402Z,27.12
2016-04-26T08:54:14.375Z,27.22
2016-04-26T08:55:14.378Z,27.19
2016-04-26T08:56:14.381Z,27.21
2016-04-26T08:57:14.400Z,27.24
2016-04-26T08:58:14.404Z,27.31
2016-04-26T08:59:14.407Z,27.28
2016-04-26T09:00:14.409Z,27.1
2016-04-26T09:01:14.427Z,27.21
2016-04-26T09:02:14.429Z,27.21
2016-04-26T09:03:14.433Z,27.13
2016-04-26T09:04:13.685Z,27.21
2016-04-26T09:05:14.469Z,27.12
2016-04-26T09:06:14.457Z,27.19
2016-04-26T09:07:14.459Z,27.25
2016-04-26T09:08:14.462Z,27.25
2016-04-26T09:09:14.480Z,27.18
2016-04-26T09:10:14.483Z,27.09
2016-04-26T09:11:14.501Z,27.13
2016-04-26T09:12:14.504Z,27.12
2016-04-26T09:13:14.506Z,27.19
2016-04-26T09:14:14.509Z,27.13
2016-04-26T09:15:14.527Z,27.14
2016-04-26T09:16:14.530Z,27.07
2016-04-26T09:17:14.548Z,27.09
2016-04-26T09:18:14.411Z,27.06
2016-04-26T09:19:14.553Z,27.09
2016-04-26T09:20:14.572Z,27.03
2016-04-26T09:21:14.559Z,27.06
2016-04-26T09:22:14.578Z,26.97
2016-04-26T09:23:14.580Z,26.84
2016-04-26T09:24:14.582Z,27
2016-04-26T09:25:14.602Z,27.13
2016-04-26T09:26:14.619Z,27.06
2016-04-26T09:27:14.607Z,27.13
2016-04-26T09:28:14.610Z,27.04
2016-04-26T09:29:14.612Z,27.07
2016-04-26T09:30:14.630Z,27.1
2016-04-26T09:31:14.632Z,27.1
2016-04-26T09:32:14.651Z,27.17
2016-04-26T09:33:14.982Z,27.13
2016-04-26T09:34:14.657Z,27.27
2016-04-26T09:35:14.659Z,27.28
2016-04-26T09:36:14.663Z,27.41
2016-04-26T09:37:14.681Z,27.19
2016-04-26T09:38:14.683Z,27.43
2016-04-26T09:39:14.701Z,27.47
2016-04-26T09:40:14.704Z,27.55
2016-04-26T09:41:13.973Z,27.65
2016-04-26T09:42:14.709Z,27.55
2016-04-26T09:43:14.728Z,27.5
2016-04-26T09:44:16.215Z,27.59
2016-04-26T09:45:14.748Z,27.59
2016-04-26T09:46:14.814Z,27.51
2016-04-26T09:47:14.753Z,27.55
2016-04-26T09:48:16.663Z,27.55
2016-04-26T09:49:18.728Z,27.51
2016-04-26T09:50:14.778Z,27.5
2016-04-26T09:51:14.781Z,27.49
2016-04-26T09:52:14.783Z,27.49
2016-04-26T09:53:14.802Z,27.41
2016-04-26T09:54:19.461Z,27.39
2016-04-26T09:55:14.823Z,27.49
2016-04-26T09:56:14.824Z,27.39
2016-04-26T09:57:14.827Z,27.36
2016-04-26T09:58:14.830Z,27.41
2016-04-26T09:59:14.833Z,27.29
2016-04-26T10:00:14.852Z,27.29
2016-04-26T10:01:14.854Z,27.32
2016-04-26T10:02:14.857Z,27.27
2016-04-26T10:03:15.704Z,27.36
2016-04-26T10:04:15.221Z,27.25
2016-04-26T10:05:14.881Z,27.27
2016-04-26T10:06:14.884Z,27.25
2016-04-26T10:07:14.887Z,27.43
2016-04-26T10:08:17.810Z,27.5
2016-04-26T10:09:14.923Z,27.43
2016-04-26T10:10:14.909Z,27.41
2016-04-26T10:11:14.929Z,27.41
2016-04-26T10:12:14.931Z,27.63
2016-04-26T10:13:16.309Z,27.57
2016-04-26T10:14:14.951Z,27.74
2016-04-26T10:15:14.970Z,27.63
2016-04-26T10:16:14.972Z,27.65
2016-04-26T10:17:14.976Z,27.74
2016-04-26T10:18:14.994Z,27.67
2016-04-26T10:19:14.981Z,27.74
2016-04-26T10:20:15.000Z,27.65
2016-04-26T10:21:15.002Z,27.57
2016-04-26T10:22:15.019Z,27.54
2016-04-26T10:23:15.008Z,27.51
2016-04-26T10:24:15.011Z,27.55
2016-04-26T10:25:15.027Z,27.59
2016-04-26T10:26:15.047Z,27.6
2016-04-26T10:27:15.050Z,27.57
2016-04-26T10:28:15.052Z,27.69
2016-04-26T10:29:15.071Z,27.67
2016-04-26T10:30:14.916Z,27.74
2016-04-26T10:31:15.077Z,27.7
2016-04-26T10:32:15.094Z,27.74
2016-04-26T10:33:17.160Z,27.7
2016-04-26T10:34:14.991Z,27.67
2016-04-26T10:35:18.524Z,27.84
2016-04-26T10:36:15.120Z,27.77
2016-04-26T10:37:15.139Z,27.67
2016-04-26T10:38:15.140Z,27.63
2016-04-26T10:39:15.129Z,27.6
2016-04-26T10:40:15.146Z,27.49
2016-04-26T10:41:15.165Z,27.5
2016-04-26T10:42:15.167Z,27.51
2016-04-26T10:43:15.186Z,27.47
2016-04-26T10:44:15.173Z,27.47
2016-04-26T10:45:15.176Z,27.36
2016-04-26T10:46:15.209Z,27.43
2016-04-26T10:47:15.197Z,27.39
2016-04-26T10:48:15.059Z,27.39
2016-04-26T10:49:16.420Z,27.37
2016-04-26T10:50:15.221Z,27.14
2016-04-26T10:51:15.239Z,27.09
2016-04-26T10:52:15.257Z,27.14
2016-04-26T10:53:15.228Z,27.25
2016-04-26T10:54:15.247Z,27.29
2016-04-26T10:55:15.249Z,27.44
2016-04-26T10:56:15.269Z,27.32
2016-04-26T10:57:15.271Z,27.43
2016-04-26T10:58:15.274Z,27.55
2016-04-26T10:59:15.291Z,27.39
2016-04-26T11:00:15.279Z,27.43
2016-04-26T11:01:15.297Z,27.37
2016-04-26T11:02:15.316Z,27.39
2016-04-26T11:03:15.616Z,27.41
2016-04-26T11:04:16.086Z,27.28
2016-04-26T11:05:15.323Z,27.39
2016-04-26T11:06:15.327Z,27.39
2016-04-26T11:07:15.360Z,27.37
2016-04-26T11:08:15.363Z,27.28
2016-04-26T11:09:15.366Z,27.37
2016-04-26T11:10:15.368Z,27.39
2016-04-26T11:11:15.371Z,27.39
2016-04-26T11:12:15.389Z,27.31
2016-04-26T11:13:15.377Z,27.29
2016-04-26T11:14:15.395Z,27.27
2016-04-26T11:15:15.413Z,27.31
2016-04-26T11:16:15.431Z,27.34
2016-04-26T11:17:15.403Z,27.43
2016-04-26T11:18:15.312Z,27.39
2016-04-26T11:19:18.517Z,27.55
2016-04-26T11:20:15.442Z,27.51
2016-04-26T11:21:15.445Z,27.41
2016-04-26T11:22:15.463Z,27.39
2016-04-26T11:23:15.466Z,27.41
2016-04-26T11:24:15.469Z,27.43
2016-04-26T11:25:15.472Z,27.39
2016-04-26T11:26:15.489Z,27.46
2016-04-26T11:27:15.492Z,27.41
2016-04-26T11:28:15.495Z,27.41
2016-04-26T11:29:15.498Z,27.37
2016-04-26T11:30:15.516Z,27.4
2016-04-26T11:31:15.519Z,27.47
2016-04-26T11:32:15.536Z,27.36
2016-04-26T11:33:15.399Z,27.31
2016-04-26T11:34:17.386Z,27.31
2016-04-26T11:35:15.561Z,27.24
2016-04-26T11:36:15.547Z,27.32
2016-04-26T11:37:15.565Z,27.17
2016-04-26T11:38:15.585Z,27.25
2016-04-26T11:39:15.477Z,27.24
2016-04-26T11:40:15.590Z,27.29
2016-04-26T11:41:15.593Z,27.34
2016-04-26T11:42:15.610Z,27.25
2016-04-26T11:43:15.612Z,27.14
2016-04-26T11:44:15.615Z,27.28
2016-04-26T11:45:15.541Z,27.12
2016-04-26T11:46:15.637Z,27.18
2016-04-26T11:47:15.640Z,27.19
2016-04-26T11:48:15.643Z,27.14
2016-04-26T11:49:16.254Z,27.17
2016-04-26T11:50:15.664Z,27.1
2016-04-26T11:51:15.666Z,27.13
2016-04-26T11:52:15.684Z,27.18
2016-04-26T11:53:15.687Z,27.13
2016-04-26T11:54:15.690Z,27.07
2016-04-26T11:55:15.693Z,27.07
2016-04-26T11:56:15.711Z,27.12
2016-04-26T11:57:15.713Z,27.09
2016-04-26T11:58:15.716Z,26.97
2016-04-26T11:59:15.734Z,26.76
2016-04-26T12:00:15.736Z,26.6
2016-04-26T12:01:15.755Z,26.66
2016-04-26T12:02:15.758Z,26.52
2016-04-26T12:03:15.449Z,26.52
2016-04-26T12:04:15.654Z,26.55
2016-04-26T12:05:15.766Z,26.69
2016-04-26T12:06:15.785Z,26.58
2016-04-26T12:07:15.803Z,26.67
2016-04-26T12:08:15.790Z,26.81
2016-04-26T12:09:15.793Z,26.77
2016-04-26T12:10:15.810Z,26.84
2016-04-26T12:11:15.814Z,26.82
2016-04-26T12:12:15.848Z,26.91
2016-04-26T12:13:15.834Z,26.8
2016-04-26T12:14:15.821Z,26.89
2016-04-26T12:15:15.840Z,26.81
2016-04-26T12:16:15.858Z,26.85
2016-04-26T12:17:15.862Z,26.82
2016-04-26T12:18:15.567Z,26.73
2016-04-26T12:19:16.617Z,26.88
2016-04-26T12:20:15.884Z,26.91
2016-04-26T12:21:15.903Z,26.85
2016-04-26T12:22:15.889Z,26.82
2016-04-26T12:23:15.892Z,26.85
2016-04-26T12:24:15.911Z,26.87
2016-04-26T12:25:15.914Z,26.95
2016-04-26T12:26:15.931Z,26.88
2016-04-26T12:27:15.934Z,26.95
2016-04-26T12:28:15.937Z,26.99
2016-04-26T12:29:15.940Z,27
2016-04-26T12:30:15.958Z,27.12
2016-04-26T12:31:16.320Z,27.12
2016-04-26T12:32:15.964Z,27.1
2016-04-26T12:33:15.982Z,27.1
2016-04-26T12:34:16.391Z,27.14
2016-04-26T12:35:15.987Z,27.06
2016-04-26T12:36:15.991Z,27.17
2016-04-26T12:37:15.993Z,27.12
2016-04-26T12:38:16.011Z,27.07
2016-04-26T12:39:16.014Z,27.19
2016-04-26T12:40:16.032Z,27.14
2016-04-26T12:41:16.035Z,27.27
2016-04-26T12:42:16.038Z,27.1
2016-04-26T12:43:16.041Z,27.29
2016-04-26T12:44:16.043Z,27.32
2016-04-26T12:45:16.061Z,27.37
2016-04-26T12:46:16.065Z,27.4
2016-04-26T12:47:16.083Z,27.32
2016-04-26T12:48:16.070Z,27.19
2016-04-26T12:49:16.087Z,27.07
2016-04-26T12:50:16.091Z,27.1
2016-04-26T12:51:16.203Z,27.04
2016-04-26T12:52:16.112Z,27.24
2016-04-26T12:53:16.114Z,27.39
2016-04-26T12:54:16.132Z,27.6
2016-04-26T12:55:16.135Z,27.55